Terminal Aerodrome Forecast
Issued by NWS

Home | Current Version | Previous Version | Text Only | Print | Product List | Glossary On
Versions: 1 2 3 4 5 6 7 8 9 10 11 12 13 14 15 16
817
FTUS41 KBGM 080857 AAA
TAFITH
TAF AMD
KITH 080857Z 0809/0906 12006KT P6SM SCT120 BKN250
     FM081600 14008KT P6SM BKN100
     FM090000 13007KT P6SM -SHSN OVC040=

USA.gov is the U.S. government's official web portal to all federal, state and local government web resources and services.